Time;durP1;ratioP1;P1;durP2;ratioP2;P2;SDS_P1;SDS_P2;PMS_P1;PMS_P2;Temp;Humidity;BMP_temperature;BMP_pressure;BME280_temperature;BME280_humidity;BME280_pressure;Samples;Min_cycle;Max_cycle;Signal;HPM_P1;HPM_P2
2021/04/02 00:00:33;;;;;;;7.88;3.35;;;;;;;27.26;26.11;96789.03;5065588;28;20055;-26
2021/04/02 00:02:58;;;;;;;7.20;2.90;;;;;;;27.27;26.08;96801.28;5061603;28;20020;-30
2021/04/02 00:05:24;;;;;;;4.75;2.65;;;;;;;27.26;25.98;96797.78;5063609;28;20027;-25
2021/04/02 00:07:49;;;;;;;3.05;2.30;;;;;;;27.27;25.98;96793.38;5063341;28;20035;-28
2021/04/02 00:10:20;;;;;;;6.15;2.45;;;;;;;27.26;26.20;96789.03;5059410;28;20068;-28
2021/04/02 00:12:45;;;;;;;4.60;2.75;;;;;;;27.26;26.24;96783.75;5064090;28;20036;-30
2021/04/02 00:15:13;;;;;;;4.18;3.00;;;;;;;27.26;26.11;96789.88;5065274;28;20990;-24
2021/04/02 00:17:39;;;;;;;5.97;2.45;;;;;;;27.25;26.12;96790.84;5058975;28;20290;-26
2021/04/02 00:20:06;;;;;;;6.30;2.85;;;;;;;27.26;26.11;96786.41;5062284;28;20078;-25
2021/04/02 00:22:32;;;;;;;4.65;2.53;;;;;;;27.22;26.02;96787.50;5066325;28;20523;-26
2021/04/02 00:24:57;;;;;;;5.10;2.60;;;;;;;27.25;26.09;96782.09;5069111;28;20035;-26
2021/04/02 00:27:23;;;;;;;5.78;2.95;;;;;;;27.26;26.22;96794.28;5070830;28;20032;-30
2021/04/02 00:29:48;;;;;;;6.57;2.90;;;;;;;27.25;26.20;96787.34;5068329;28;20085;-24
2021/04/02 00:32:13;;;;;;;6.28;2.53;;;;;;;27.25;26.16;96789.97;5056748;28;20055;-28
2021/04/02 00:34:39;;;;;;;3.75;2.33;;;;;;;27.24;26.24;96783.84;5072087;28;20404;-29
2021/04/02 00:37:04;;;;;;;4.20;2.55;;;;;;;27.24;26.34;96781.22;5073645;28;20045;-27
2021/04/02 00:39:30;;;;;;;3.83;2.42;;;;;;;27.25;26.35;96784.72;5061631;28;20025;-27
2021/04/02 00:41:55;;;;;;;5.85;3.13;;;;;;;27.24;26.27;96780.41;5061551;28;20032;-26
2021/04/02 00:44:20;;;;;;;8.07;2.70;;;;;;;27.25;26.19;96787.34;5064972;28;20557;-24
2021/04/02 00:46:46;;;;;;;4.40;2.63;;;;;;;27.24;26.29;96781.22;5066767;28;20032;-25
2021/04/02 00:49:11;;;;;;;4.60;2.67;;;;;;;27.24;26.20;96781.22;5070377;28;20097;-27
2021/04/02 00:51:37;;;;;;;4.85;2.92;;;;;;;27.24;26.27;96775.13;5068071;28;20089;-30
2021/04/02 00:54:02;;;;;;;3.85;2.47;;;;;;;27.23;26.23;96774.28;5073925;28;20036;-27
2021/04/02 00:56:28;;;;;;;3.28;2.20;;;;;;;27.23;26.26;96778.72;5072409;28;20036;-28
2021/04/02 00:58:53;;;;;;;4.32;2.28;;;;;;;27.22;26.26;96772.59;5050087;28;20099;-24
2021/04/02 01:01:19;;;;;;;4.63;2.28;;;;;;;27.23;26.32;96779.53;5068221;28;20020;-21
2021/04/02 01:03:45;;;;;;;3.33;2.10;;;;;;;27.22;26.37;96775.22;5072164;28;20036;-28
2021/04/02 01:06:21;;;;;;;3.22;2.10;;;;;;;27.22;26.31;96777.00;5065839;28;20024;-25
2021/04/02 01:08:46;;;;;;;4.13;2.30;;;;;;;27.23;26.28;96778.72;5066444;28;20082;-25
2021/04/02 01:11:19;;;;;;;4.95;2.00;;;;;;;27.22;26.26;96774.34;5066720;28;20032;-24
2021/04/02 01:13:52;;;;;;;3.50;2.20;;;;;;;27.23;26.23;96773.44;5068764;28;20035;-29
2021/04/02 01:16:19;;;;;;;4.22;2.28;;;;;;;27.23;26.39;96770.81;5068911;28;20035;-27
2021/04/02 01:19:22;;;;;;;3.03;2.10;;;;;;;27.22;26.41;96771.72;5067509;28;20398;-26
2021/04/02 01:22:05;;;;;;;3.03;2.10;;;;;;;27.21;26.26;96773.53;5065916;28;20431;-24
2021/04/02 01:24:57;;;;;;;3.53;2.00;;;;;;;27.22;26.25;96782.25;5070989;28;20086;-31
2021/04/02 01:27:50;;;;;;;3.53;2.08;;;;;;;27.21;26.36;96780.56;5069237;28;20463;-28
2021/04/02 01:30:15;;;;;;;2.65;1.80;;;;;;;27.20;26.26;96784.13;5074268;28;20131;-24
2021/04/02 01:32:45;;;;;;;4.07;2.30;;;;;;;27.20;26.43;96786.78;5064684;28;21296;-24
2021/04/02 01:35:18;;;;;;;4.60;1.92;;;;;;;27.20;26.33;96784.13;5066339;28;20020;-26
2021/04/02 01:37:52;;;;;;;3.20;2.08;;;;;;;27.19;26.44;96780.66;5069311;28;20527;-26
2021/04/02 01:40:18;;;;;;;3.45;2.30;;;;;;;27.19;26.43;96779.81;5065657;28;20111;-26
2021/04/02 01:42:43;;;;;;;3.88;2.20;;;;;;;27.19;26.23;96782.47;5065568;28;20096;-32
2021/04/02 01:45:10;;;;;;;3.92;2.08;;;;;;;27.19;26.46;96782.47;5070667;28;20858;-26
2021/04/02 01:47:36;;;;;;;3.45;2.00;;;;;;;27.19;26.47;96785.91;5050959;28;20107;-27
2021/04/02 01:50:01;;;;;;;10.50;6.15;;;;;;;27.20;26.38;96784.13;5065606;28;20031;-28
2021/04/02 01:52:27;;;;;;;9.90;3.90;;;;;;;27.19;26.33;96782.47;5059940;28;20494;-27
2021/04/02 01:54:52;;;;;;;5.20;2.95;;;;;;;27.19;26.47;96787.72;5067374;28;20479;-25
2021/04/02 01:57:18;;;;;;;4.55;2.20;;;;;;;27.18;26.36;96778.09;5050467;28;20020;-27
2021/04/02 01:59:44;;;;;;;4.10;2.22;;;;;;;27.18;26.43;96786.00;5066546;28;20500;-24
2021/04/02 02:02:10;;;;;;;5.25;2.45;;;;;;;27.19;26.39;96782.47;5067618;28;20032;-27
2021/04/02 02:04:35;;;;;;;10.60;1.92;;;;;;;27.18;26.48;96780.75;5067315;28;20047;-28
2021/04/02 02:07:01;;;;;;;2.47;1.77;;;;;;;27.19;26.36;96787.72;5053187;28;20028;-28
2021/04/02 02:09:36;;;;;;;4.35;2.30;;;;;;;27.18;26.43;96786.00;5065235;28;20024;-25
2021/04/02 02:12:03;;;;;;;3.25;1.80;;;;;;;27.19;26.32;96792.97;5051181;28;20395;-27
2021/04/02 02:14:30;;;;;;;4.13;2.25;;;;;;;27.17;26.48;96793.06;5066535;28;20447;-25
2021/04/02 02:16:56;;;;;;;3.33;2.10;;;;;;;27.18;26.43;96791.25;5066575;28;20436;-26
2021/04/02 02:19:24;;;;;;;4.15;1.90;;;;;;;27.17;26.49;96794.84;5067976;28;20028;-25
2021/04/02 02:21:51;;;;;;;2.67;1.67;;;;;;;27.17;26.30;96794.84;5068430;28;20024;-25
2021/04/02 02:24:16;;;;;;;3.80;2.00;;;;;;;27.17;26.36;96800.97;5063373;28;20032;-26
2021/04/02 02:26:42;;;;;;;2.85;1.80;;;;;;;27.17;26.43;96798.31;5049463;28;20388;-27
2021/04/02 02:29:11;;;;;;;4.22;2.30;;;;;;;27.17;26.56;96798.31;5066498;28;20392;-29
2021/04/02 02:31:37;;;;;;;4.97;2.20;;;;;;;27.17;26.43;96795.69;5068450;28;20032;-29
2021/04/02 02:34:04;;;;;;;4.55;2.17;;;;;;;27.17;26.58;96789.56;5061454;28;20024;-27
2021/04/02 02:36:29;;;;;;;2.65;1.90;;;;;;;27.16;26.58;96798.41;5068641;28;20082;-28
2021/04/02 02:38:55;;;;;;;6.28;2.25;;;;;;;27.17;26.50;96800.97;5056706;28;20040;-25
2021/04/02 02:41:20;;;;;;;3.90;2.22;;;;;;;27.16;26.46;96799.28;5069666;28;20085;-28
2021/04/02 02:43:46;;;;;;;2.33;1.80;;;;;;;27.16;26.51;96799.28;5062767;28;20469;-26
2021/04/02 02:46:12;;;;;;;2.88;1.95;;;;;;;27.17;26.54;96800.97;5066086;28;20021;-29
2021/04/02 02:48:37;;;;;;;3.13;2.00;;;;;;;27.16;26.53;96799.28;5069581;28;20032;-27
2021/04/02 02:51:03;;;;;;;4.68;2.05;;;;;;;27.17;26.48;96805.34;5044102;28;20729;-26
2021/04/02 02:53:29;;;;;;;4.35;1.92;;;;;;;27.17;26.48;96800.09;5062802;28;20044;-26
2021/04/02 02:55:54;;;;;;;4.88;1.90;;;;;;;27.16;26.46;96798.41;5052579;28;20109;-27
2021/04/02 02:58:24;;;;;;;3.10;1.90;;;;;;;27.17;26.59;96794.84;5054963;28;20027;-27
2021/04/02 03:00:50;;;;;;;4.63;2.00;;;;;;;27.16;26.49;96798.41;5068825;28;20023;-25
2021/04/02 03:03:16;;;;;;;2.53;1.70;;;;;;;27.15;26.55;96791.47;5065048;28;20435;-28
2021/04/02 03:05:49;;;;;;;4.00;1.90;;;;;;;27.16;26.58;96790.53;5046729;28;20592;-26
2021/04/02 03:08:19;;;;;;;2.85;1.90;;;;;;;27.15;26.49;96791.47;5061698;28;20032;-29
2021/04/02 03:10:44;;;;;;;3.22;1.90;;;;;;;27.15;26.47;96791.47;5063430;28;20054;-28
2021/04/02 03:13:10;;;;;;;3.28;1.75;;;;;;;27.14;26.71;96785.34;5051044;28;20050;-26
2021/04/02 03:15:35;;;;;;;2.35;1.70;;;;;;;27.15;26.56;96783.56;5064217;28;20408;-26
2021/04/02 03:18:06;;;;;;;5.18;1.83;;;;;;;27.15;26.62;96788.84;5049456;28;20091;-26
2021/04/02 03:20:35;;;;;;;2.85;1.70;;;;;;;27.15;26.52;96788.84;5067534;28;20099;-26
2021/04/02 03:23:00;;;;;;;3.70;2.03;;;;;;;27.13;26.60;96784.50;5065274;28;20215;-27
2021/04/02 03:25:26;;;;;;;5.03;2.08;;;;;;;27.14;26.70;96785.34;5063383;28;20324;-27
2021/04/02 03:27:51;;;;;;;3.70;1.95;;;;;;;27.12;26.63;96780.16;5068116;28;20039;-27
2021/04/02 03:30:17;;;;;;;3.70;1.73;;;;;;;27.13;26.63;96779.25;5049548;28;20085;-29
2021/04/02 03:32:45;;;;;;;3.47;1.90;;;;;;;27.12;26.47;96781.97;5066972;28;20079;-27
2021/04/02 03:35:11;;;;;;;2.97;1.73;;;;;;;27.13;26.55;96786.28;5060964;28;20470;-23
2021/04/02 03:37:37;;;;;;;3.22;1.90;;;;;;;27.13;26.49;96784.50;5080849;28;21836;-25
2021/04/02 03:40:10;;;;;;;2.55;1.58;;;;;;;27.13;26.47;96781.03;5066265;28;20028;-27
2021/04/02 03:42:35;;;;;;;5.00;2.00;;;;;;;27.12;26.54;96782.81;5065536;28;20028;-25
2021/04/02 03:45:01;;;;;;;2.80;1.60;;;;;;;27.12;26.69;96774.91;5065549;28;20312;-30
2021/04/02 03:47:26;;;;;;;3.72;1.75;;;;;;;27.13;26.55;96788.91;5052082;28;20020;-25
2021/04/02 03:49:52;;;;;;;4.18;1.63;;;;;;;27.15;26.46;96791.47;5049258;28;20032;-25
2021/04/02 03:52:23;;;;;;;3.00;1.65;;;;;;;27.14;26.58;96798.50;5050902;28;20021;-28
2021/04/02 03:54:49;;;;;;;2.47;1.50;;;;;;;27.13;26.62;96786.28;5068249;28;20516;-26
2021/04/02 03:57:14;;;;;;;1.58;1.33;;;;;;;27.11;26.39;96781.13;5052645;28;20067;-28
2021/04/02 03:59:40;;;;;;;9.52;1.90;;;;;;;27.13;26.45;96791.56;5072279;28;20036;-26
2021/04/02 04:02:06;;;;;;;3.10;1.60;;;;;;;27.13;26.67;96795.03;5051616;28;20063;-24
2021/04/02 04:04:31;;;;;;;2.50;1.80;;;;;;;27.12;26.46;96793.31;5066806;28;20028;-28
2021/04/02 04:06:58;;;;;;;6.88;1.70;;;;;;;27.13;26.72;96792.41;5055384;28;20032;-28
2021/04/02 04:09:25;;;;;;;1.55;1.40;;;;;;;27.12;26.63;96782.81;5067142;28;20079;-25
2021/04/02 04:11:51;;;;;;;7.13;1.98;;;;;;;27.12;26.49;96790.69;5088705;28;20045;-28
2021/04/02 04:14:16;;;;;;;1.95;1.50;;;;;;;27.11;26.56;96791.63;5064259;28;20038;-27
2021/04/02 04:16:42;;;;;;;1.63;1.20;;;;;;;27.12;26.69;96795.94;5054205;28;20056;-25
2021/04/02 04:19:08;;;;;;;2.75;1.58;;;;;;;27.11;26.58;96794.25;5052767;28;20040;-27
2021/04/02 04:21:40;;;;;;;2.75;1.25;;;;;;;27.11;26.62;96791.63;5054379;28;20039;-24
2021/04/02 04:24:07;;;;;;;2.80;1.60;;;;;;;27.11;26.61;96801.28;5069935;28;20028;-24
2021/04/02 04:26:32;;;;;;;2.50;1.38;;;;;;;27.10;26.51;96803.09;5054940;28;20060;-26
2021/04/02 04:28:58;;;;;;;3.40;1.92;;;;;;;27.11;26.50;96799.53;5068877;28;20032;-26
2021/04/02 04:31:23;;;;;;;2.60;1.58;;;;;;;27.11;26.47;96798.66;5069576;28;20056;-26
2021/04/02 04:33:49;;;;;;;2.20;1.55;;;;;;;27.10;26.52;96800.47;5044084;28;20036;-27
2021/04/02 04:36:14;;;;;;;5.63;1.30;;;;;;;27.10;26.63;96795.22;5064113;28;20037;-25
2021/04/02 04:38:40;;;;;;;3.40;1.58;;;;;;;27.10;26.62;96797.84;5043029;28;20035;-25
2021/04/02 04:41:05;;;;;;;4.78;1.40;;;;;;;27.10;26.46;96800.47;5042410;28;21033;-26
2021/04/02 04:43:30;;;;;;;3.40;1.60;;;;;;;27.08;26.61;96799.69;5049796;28;20027;-23
2021/04/02 04:45:56;;;;;;;3.60;1.20;;;;;;;27.10;26.59;96800.47;5072065;28;20516;-23
2021/04/02 04:48:21;;;;;;;2.00;1.27;;;;;;;27.09;26.62;96793.53;5069790;28;20031;-25
2021/04/02 04:50:47;;;;;;;1.70;1.42;;;;;;;27.10;26.53;96805.72;5075271;28;20707;-27
2021/04/02 04:53:24;;;;;;;3.33;1.25;;;;;;;27.09;26.52;96804.03;5060918;28;20031;-28
2021/04/02 04:55:50;;;;;;;2.03;1.23;;;;;;;27.09;26.58;96798.78;5054260;28;20035;-24
2021/04/02 04:58:16;;;;;;;1.02;0.95;;;;;;;27.08;26.49;96793.59;5072376;28;20040;-28
2021/04/02 05:00:43;;;;;;;1.35;1.20;;;;;;;27.08;26.52;96791.81;5064618;28;20720;-26
2021/04/02 05:03:09;;;;;;;1.50;1.33;;;;;;;27.08;26.40;96796.25;5064481;28;20035;-27
2021/04/02 05:05:38;;;;;;;3.13;1.23;;;;;;;27.08;26.50;96797.06;5068892;28;20032;-26
2021/04/02 05:08:05;;;;;;;1.75;1.20;;;;;;;27.07;26.60;96800.63;5082432;27;20217;-28
2021/04/02 05:10:31;;;;;;;2.28;1.40;;;;;;;27.07;26.50;96790.13;5069737;28;20663;-24
2021/04/02 05:12:57;;;;;;;1.67;0.98;;;;;;;27.07;26.60;96794.53;5067571;28;20032;-22
2021/04/02 05:15:22;;;;;;;1.85;1.33;;;;;;;27.06;26.55;96788.44;5083894;27;20030;-26
2021/04/02 05:17:48;;;;;;;2.67;1.45;;;;;;;27.07;26.51;96800.63;5055081;28;20016;-28
2021/04/02 05:20:14;;;;;;;2.15;1.23;;;;;;;27.07;26.51;96805.91;5053984;28;20028;-30
2021/04/02 05:22:39;;;;;;;1.73;0.88;;;;;;;27.06;26.63;96809.47;5068909;28;20114;-28
2021/04/02 05:25:05;;;;;;;2.75;1.30;;;;;;;27.07;26.67;96812.94;5072946;28;20081;-28
2021/04/02 05:27:31;;;;;;;2.22;1.15;;;;;;;27.05;26.63;96802.53;5067998;28;20020;-25
2021/04/02 05:29:57;;;;;;;1.92;1.10;;;;;;;27.07;26.56;96811.16;5050825;28;20032;-23
2021/04/02 05:32:22;;;;;;;1.83;1.17;;;;;;;27.06;26.49;96817.38;5070609;28;20118;-28
2021/04/02 05:34:48;;;;;;;1.85;1.10;;;;;;;27.06;26.52;96814.72;5067011;28;20318;-26
2021/04/02 05:37:13;;;;;;;1.90;1.10;;;;;;;27.06;26.54;96814.72;5065797;28;20373;-26
2021/04/02 05:39:38;;;;;;;1.58;1.17;;;;;;;27.06;26.52;96820.00;5069392;28;20039;-27
2021/04/02 05:42:05;;;;;;;1.85;1.20;;;;;;;27.05;26.51;96818.31;5064244;28;20027;-27
2021/04/02 05:44:35;;;;;;;1.70;1.10;;;;;;;27.05;26.58;96822.72;5070462;28;20032;-26
2021/04/02 05:47:02;;;;;;;1.35;0.98;;;;;;;27.05;26.64;96825.34;5070328;28;20060;-26
2021/04/02 05:49:28;;;;;;;2.70;1.10;;;;;;;27.04;26.47;96821.84;5067184;28;20077;-24
2021/04/02 05:51:53;;;;;;;1.40;1.00;;;;;;;27.04;26.63;96828.91;5050028;28;20028;-30
2021/04/02 05:54:35;;;;;;;2.03;1.30;;;;;;;27.05;26.56;96834.09;5073555;28;20487;-27
2021/04/02 05:57:01;;;;;;;2.10;1.20;;;;;;;27.04;26.58;96832.38;5049013;28;20027;-25
2021/04/02 05:59:26;;;;;;;1.73;1.15;;;;;;;27.03;26.65;96835.94;5071122;28;20028;-25
2021/04/02 06:01:52;;;;;;;2.10;1.20;;;;;;;27.03;26.63;96835.94;5065603;28;21786;-26
2021/04/02 06:04:17;;;;;;;1.70;1.10;;;;;;;27.00;26.50;96838.75;5070043;28;20470;-25
2021/04/02 06:06:44;;;;;;;1.80;0.90;;;;;;;27.04;26.64;96842.06;5067309;28;20028;-22
2021/04/02 06:09:09;;;;;;;1.48;1.02;;;;;;;27.02;26.65;96836.88;5067922;28;20027;-27
2021/04/02 06:11:36;;;;;;;2.20;1.10;;;;;;;27.02;26.67;96839.50;5062804;28;20040;-27
2021/04/02 06:14:01;;;;;;;1.17;0.90;;;;;;;27.02;26.58;96833.41;5064543;28;20020;-26
2021/04/02 06:16:27;;;;;;;1.90;0.93;;;;;;;27.02;26.64;96838.66;5064570;28;20024;-29
2021/04/02 06:18:55;;;;;;;1.73;0.93;;;;;;;27.01;26.63;96832.56;5066607;28;20085;-25
2021/04/02 06:21:24;;;;;;;1.75;1.13;;;;;;;27.01;26.64;96832.56;5062729;28;20142;-23
2021/04/02 06:23:49;;;;;;;3.13;1.33;;;;;;;27.01;26.68;96829.94;5053352;28;20770;-25
2021/04/02 06:26:15;;;;;;;3.55;1.20;;;;;;;27.02;26.67;96823.75;5064867;28;20031;-25
2021/04/02 06:28:41;;;;;;;4.35;1.08;;;;;;;27.03;26.61;96829.84;5065076;28;20040;-26
2021/04/02 06:31:07;;;;;;;6.75;1.20;;;;;;;27.02;26.62;96822.88;5066419;28;20381;-27
2021/04/02 06:33:37;;;;;;;2.33;1.10;;;;;;;27.03;26.59;96820.16;5062279;28;20421;-30
2021/04/02 06:36:19;;;;;;;5.35;1.20;;;;;;;27.03;26.51;96829.84;5064985;28;20115;-26
2021/04/02 06:39:06;;;;;;;4.80;1.40;;;;;;;27.02;26.58;96826.38;5053189;28;20561;-25
2021/04/02 06:41:32;;;;;;;11.00;1.13;;;;;;;27.04;26.51;96832.38;5047338;28;20045;-28
2021/04/02 06:43:59;;;;;;;5.20;1.65;;;;;;;27.03;26.52;96837.75;5064033;28;20020;-26
2021/04/02 06:46:26;;;;;;;10.48;1.10;;;;;;;27.03;26.62;96837.75;5059200;28;20020;-26
2021/04/02 06:48:55;;;;;;;3.38;1.33;;;;;;;27.02;26.36;96844.78;5071162;28;20081;-26
2021/04/02 06:51:22;;;;;;;6.18;1.40;;;;;;;27.04;26.34;96842.88;5059747;28;20736;-28
2021/04/02 06:53:49;;;;;;;6.43;1.52;;;;;;;27.04;26.45;96848.16;5063213;28;22089;-25
2021/04/02 06:56:16;;;;;;;5.20;1.30;;;;;;;27.04;26.30;96845.53;5044610;28;20588;-26
2021/04/02 06:58:42;;;;;;;2.45;1.52;;;;;;;27.06;26.38;96846.28;5038888;28;20048;-24
2021/04/02 07:01:08;;;;;;;1.92;1.08;;;;;;;27.04;26.25;96840.25;5041075;28;20021;-25
2021/04/02 07:03:34;;;;;;;3.47;1.25;;;;;;;27.05;26.34;96844.59;5045112;28;20035;-26
2021/04/02 07:06:05;;;;;;;2.38;1.10;;;;;;;27.06;26.11;96845.44;5025936;28;20528;-27
2021/04/02 07:08:32;;;;;;;3.00;1.35;;;;;;;27.07;26.23;96847.97;5044632;28;20117;-29
2021/04/02 07:10:57;;;;;;;5.30;1.17;;;;;;;27.07;26.25;96852.38;5038810;28;20436;-28
2021/04/02 07:13:27;;;;;;;5.45;1.30;;;;;;;27.04;26.28;96848.16;5045972;28;20024;-26
2021/04/02 07:15:52;;;;;;;2.65;1.27;;;;;;;27.07;26.07;96853.25;5041716;28;20033;-29
2021/04/02 07:18:18;;;;;;;2.60;1.13;;;;;;;27.09;26.19;96855.78;5041988;28;20106;-25
2021/04/02 07:20:44;;;;;;;2.97;1.10;;;;;;;27.08;26.23;96854.94;5031729;28;20591;-29
2021/04/02 07:23:09;;;;;;;3.20;1.40;;;;;;;27.08;26.13;96854.94;5042326;28;20058;-26
2021/04/02 07:25:37;;;;;;;4.40;1.30;;;;;;;27.08;26.21;96849.66;5040276;28;20039;-26
2021/04/02 07:28:02;;;;;;;2.72;1.52;;;;;;;27.10;26.13;96860.97;5039163;28;20366;-25
2021/04/02 07:30:29;;;;;;;3.30;1.20;;;;;;;27.08;26.11;96854.94;5042582;28;20035;-25
2021/04/02 07:32:58;;;;;;;5.30;1.30;;;;;;;27.09;26.18;96861.91;5040053;28;20063;-24
2021/04/02 07:35:24;;;;;;;2.75;1.23;;;;;;;27.08;26.22;96860.19;5037151;28;20032;-27
2021/04/02 07:37:56;;;;;;;2.15;1.20;;;;;;;27.10;26.16;96863.59;5040828;28;20025;-26
2021/04/02 07:40:32;;;;;;;2.80;1.25;;;;;;;27.09;26.15;96855.78;5040115;28;20025;-28
2021/04/02 07:42:59;;;;;;;5.38;1.45;;;;;;;27.09;26.26;96856.66;5039735;28;20036;-29
2021/04/02 07:45:27;;;;;;;3.47;1.35;;;;;;;27.09;26.30;96861.91;5036695;28;20713;-25
2021/04/02 07:47:54;;;;;;;3.72;1.38;;;;;;;27.09;26.27;96867.16;5043287;28;20393;-28
2021/04/02 07:50:32;;;;;;;2.45;1.27;;;;;;;27.09;26.20;96864.53;5043321;28;20025;-25
2021/04/02 07:52:58;;;;;;;2.75;1.15;;;;;;;27.08;26.18;96865.44;5039882;28;20097;-27
2021/04/02 07:55:23;;;;;;;2.25;1.20;;;;;;;27.08;26.44;96859.38;5042043;28;20032;-25
2021/04/02 07:57:56;;;;;;;1.25;0.80;;;;;;;27.09;26.32;96866.31;5040841;28;20106;-27
2021/04/02 08:00:23;;;;;;;2.83;1.33;;;;;;;27.09;26.49;96867.16;5038528;28;20027;-26
2021/04/02 08:03:12;;;;;;;4.50;1.40;;;;;;;27.09;26.46;96867.16;5042089;28;20052;-26
2021/04/02 08:05:39;;;;;;;3.97;1.17;;;;;;;27.10;26.36;96874.13;5039449;28;20094;-29
2021/04/02 08:08:08;;;;;;;3.20;1.27;;;;;;;27.09;26.31;96868.94;5055717;28;20028;-29
2021/04/02 08:10:34;;;;;;;6.43;2.97;;;;;;;27.07;24.80;96874.28;5039274;28;20032;-31
2021/04/02 08:12:59;;;;;;;20.35;3.42;;;;;;;26.97;24.17;96871.31;5036844;28;20059;-27
2021/04/02 08:15:25;;;;;;;12.40;3.67;;;;;;;26.84;23.33;96867.66;5046478;28;20037;-29
2021/04/02 08:17:50;;;;;;;7.20;3.75;;;;;;;26.64;23.08;96861.75;5043436;28;20429;-26
2021/04/02 08:20:21;;;;;;;14.65;3.92;;;;;;;26.41;22.22;96865.63;5046153;28;20024;-26
2021/04/02 08:22:50;;;;;;;7.30;3.72;;;;;;;26.17;22.47;96863.38;5047251;28;20497;-29
2021/04/02 08:25:16;;;;;;;10.45;3.72;;;;;;;26.02;22.30;96872.94;5048350;28;20059;-30
2021/04/02 08:27:43;;;;;;;11.93;3.53;;;;;;;25.85;22.20;96873.81;5048297;28;20092;-30
2021/04/02 08:30:09;;;;;;;6.22;3.65;;;;;;;25.69;21.98;96874.59;5044557;28;20079;-29
2021/04/02 08:32:45;;;;;;;9.07;3.95;;;;;;;25.54;21.99;96871.81;5044798;28;20124;-30
2021/04/02 08:35:12;;;;;;;6.95;4.20;;;;;;;25.42;21.42;96875.03;5043567;28;20032;-27
2021/04/02 08:37:38;;;;;;;12.90;4.00;;;;;;;25.26;21.90;96870.59;5046468;28;20485;-27
2021/04/02 08:40:13;;;;;;;11.40;3.55;;;;;;;25.14;22.17;96874.63;5047009;28;20040;-26
2021/04/02 08:42:38;;;;;;;9.13;3.03;;;;;;;25.07;22.36;96875.88;5043198;28;21723;-27
2021/04/02 08:45:07;;;;;;;17.98;2.90;;;;;;;25.03;22.70;96872.56;5043810;28;20025;-26
2021/04/02 08:47:38;;;;;;;11.40;2.25;;;;;;;25.05;22.90;96873.31;5038737;28;20032;-27
2021/04/02 08:50:04;;;;;;;7.63;2.35;;;;;;;25.09;22.91;96873.19;5040522;28;20500;-27
2021/04/02 08:52:29;;;;;;;6.88;1.95;;;;;;;25.15;23.11;96870.25;5038991;28;20028;-23
2021/04/02 08:55:00;;;;;;;6.47;1.65;;;;;;;25.18;23.30;96870.94;5040909;28;20055;-26
2021/04/02 08:57:28;;;;;;;7.28;1.83;;;;;;;25.25;23.42;96870.66;5041517;28;20118;-27
2021/04/02 08:59:53;;;;;;;4.63;1.58;;;;;;;25.31;23.23;96857.22;5042053;28;20028;-30
2021/04/02 09:02:19;;;;;;;6.93;1.88;;;;;;;25.35;23.39;96861.38;5045244;28;20191;-31
2021/04/02 09:04:44;;;;;;;4.55;1.40;;;;;;;25.42;23.34;96872.41;5025949;28;20113;-29
2021/04/02 09:07:10;;;;;;;7.20;1.73;;;;;;;25.48;23.61;96866.03;5048011;28;20029;-28
2021/04/02 09:09:41;;;;;;;7.32;1.40;;;;;;;25.52;23.55;96863.16;5047616;28;20028;-27
2021/04/02 09:12:13;;;;;;;4.38;1.50;;;;;;;25.56;23.51;96859.47;5045976;28;20024;-27
2021/04/02 09:14:49;;;;;;;3.45;1.30;;;;;;;25.60;23.54;96865.44;5036159;28;20042;-30
2021/04/02 09:17:19;;;;;;;2.65;1.20;;;;;;;25.64;23.60;96860.88;5046042;28;20104;-27
2021/04/02 09:19:45;;;;;;;2.78;1.38;;;;;;;25.67;23.71;96861.56;5042645;28;20040;-26
2021/04/02 09:22:10;;;;;;;4.90;1.30;;;;;;;25.73;23.63;96857.78;5027584;28;20029;-26
2021/04/02 09:24:38;;;;;;;2.53;1.13;;;;;;;25.81;23.90;96859.97;5040043;28;20784;-28
2021/04/02 09:27:36;;;;;;;2.60;1.30;;;;;;;25.93;24.07;96853.28;5043381;28;20102;-30
2021/04/02 09:30:05;;;;;;;2.70;1.40;;;;;;;26.05;23.87;96855.22;5044284;28;20607;-28
2021/04/02 09:32:31;;;;;;;8.98;1.50;;;;;;;26.19;23.72;96862.38;5044713;28;20480;-24
2021/04/02 09:35:00;;;;;;;4.38;1.67;;;;;;;26.34;23.79;96860.72;5041153;28;20032;-26
2021/04/02 09:37:26;;;;;;;21.23;2.67;;;;;;;26.50;23.75;96852.00;5044556;28;20037;-30
2021/04/02 09:39:59;;;;;;;28.58;2.60;;;;;;;26.66;23.56;96859.88;5044033;28;20089;-29
2021/04/02 09:42:26;;;;;;;22.98;3.13;;;;;;;26.79;23.64;96860.06;5044358;28;20037;-26
2021/04/02 09:44:51;;;;;;;12.02;2.00;;;;;;;26.90;23.58;96855.97;5046431;28;20110;-28
2021/04/02 09:47:17;;;;;;;13.70;3.33;;;;;;;27.02;23.39;96860.56;5057242;28;20071;-27
2021/04/02 09:49:42;;;;;;;9.50;1.98;;;;;;;27.11;23.38;96854.75;5063027;28;20032;-24
2021/04/02 09:52:08;;;;;;;5.82;1.65;;;;;;;27.20;23.31;96863.06;5056862;28;20035;-26
2021/04/02 09:54:34;;;;;;;11.93;2.33;;;;;;;27.28;23.08;96860.84;5062866;28;20016;-26
2021/04/02 09:57:01;;;;;;;5.55;1.65;;;;;;;27.36;23.16;96863.00;5070140;28;20020;-29
2021/04/02 09:59:27;;;;;;;9.68;2.22;;;;;;;27.42;23.12;96867.06;5066464;28;20055;-30
2021/04/02 10:01:52;;;;;;;10.15;1.80;;;;;;;27.48;23.15;96864.94;5049528;28;20858;-27
2021/04/02 10:04:18;;;;;;;6.03;1.48;;;;;;;27.55;23.09;96868.03;5071277;28;20722;-32
2021/04/02 10:06:43;;;;;;;9.32;1.63;;;;;;;27.58;22.92;96853.84;5070008;28;20093;-22
2021/04/02 10:09:09;;;;;;;11.30;2.08;;;;;;;27.67;23.02;96871.75;5052307;28;20107;-28
2021/04/02 10:11:35;;;;;;;11.30;1.58;;;;;;;27.73;23.03;96865.28;5065236;28;20615;-25
2021/04/02 10:14:01;;;;;;;7.38;1.65;;;;;;;27.75;22.98;96859.00;5066635;28;20069;-25
2021/04/02 10:16:29;;;;;;;6.88;1.40;;;;;;;27.82;23.08;96864.72;5064494;28;20031;-28
2021/04/02 10:18:54;;;;;;;6.22;1.50;;;;;;;27.86;23.05;96865.38;5063439;28;20028;-29
2021/04/02 10:21:21;;;;;;;4.82;2.03;;;;;;;27.90;23.04;96862.47;5065021;28;20452;-24
2021/04/02 10:23:47;;;;;;;4.68;1.50;;;;;;;27.94;23.00;96862.28;5060437;28;20055;-28
2021/04/02 10:26:12;;;;;;;5.95;1.48;;;;;;;27.98;22.96;96855.88;5073614;28;20027;-29
2021/04/02 10:28:38;;;;;;;6.70;1.50;;;;;;;28.00;22.91;96862.75;5057777;28;20680;-30
2021/04/02 10:31:04;;;;;;;4.95;1.50;;;;;;;28.03;23.07;96861.72;5059095;28;20348;-27
2021/04/02 10:33:29;;;;;;;5.68;1.67;;;;;;;28.06;23.09;96858.06;5062752;28;20034;-25
2021/04/02 10:35:55;;;;;;;5.60;1.63;;;;;;;28.10;23.01;96862.22;5059917;28;21094;-28
2021/04/02 10:38:20;;;;;;;9.75;2.58;;;;;;;28.12;22.25;96861.16;5063648;28;20036;-31
2021/04/02 10:40:46;;;;;;;13.32;2.47;;;;;;;28.15;22.05;96860.13;5063568;28;20031;-28
2021/04/02 10:43:11;;;;;;;6.50;2.50;;;;;;;28.17;22.09;96867.00;5065744;28;20372;-24
2021/04/02 10:45:37;;;;;;;6.47;2.22;;;;;;;28.20;22.00;96857.19;5061392;28;20036;-33
2021/04/02 10:48:03;;;;;;;5.00;2.45;;;;;;;28.21;21.66;96858.88;5065461;28;20051;-28
2021/04/02 10:50:28;;;;;;;6.85;2.17;;;;;;;28.23;21.79;96859.66;5061435;28;20216;-26
2021/04/02 10:52:54;;;;;;;5.18;3.22;;;;;;;28.25;21.28;96840.19;5065355;28;20107;-32
2021/04/02 10:55:20;;;;;;;4.35;3.17;;;;;;;28.25;20.04;96844.56;5069585;28;20658;-32
2021/04/02 10:57:45;;;;;;;7.13;2.30;;;;;;;28.24;20.57;96842.88;5064155;28;20035;-25
2021/04/02 11:00:12;;;;;;;6.45;1.90;;;;;;;28.23;21.47;96846.47;5063503;27;20652;-27
2021/04/02 11:02:38;;;;;;;3.38;1.50;;;;;;;28.22;21.83;96836.88;5066836;28;21321;-28
2021/04/02 11:05:05;;;;;;;6.60;1.60;;;;;;;28.22;22.23;96836.88;5063940;28;20119;-26
2021/04/02 11:07:30;;;;;;;7.60;1.52;;;;;;;28.23;22.13;96835.94;5063873;28;20430;-26
2021/04/02 11:09:55;;;;;;;3.28;1.23;;;;;;;28.21;22.37;96835.16;5057937;28;20077;-25
2021/04/02 11:12:28;;;;;;;4.55;1.98;;;;;;;28.24;22.11;96842.88;5057245;28;20032;-27
2021/04/02 11:14:53;;;;;;;3.72;1.55;;;;;;;28.24;22.34;96832.34;5060303;28;20565;-27
2021/04/02 11:17:19;;;;;;;6.45;1.50;;;;;;;28.23;22.38;96836.78;5060637;28;20044;-24
2021/04/02 11:19:44;;;;;;;3.90;1.15;;;;;;;28.24;22.39;96827.94;5062297;28;20078;-27
2021/04/02 11:22:09;;;;;;;3.80;1.27;;;;;;;28.26;22.61;96830.50;5059322;28;20036;-30
2021/04/02 11:24:35;;;;;;;3.40;1.20;;;;;;;28.26;22.63;96833.16;5054588;28;20904;-32
2021/04/02 11:27:00;;;;;;;18.02;2.55;;;;;;;28.28;21.67;96828.59;5061394;28;20496;-31
2021/04/02 11:29:25;;;;;;;3.35;1.55;;;;;;;28.28;21.94;96833.88;5063366;28;20032;-32
2021/04/02 11:31:51;;;;;;;3.92;1.05;;;;;;;28.28;22.28;96823.34;5065979;27;20043;-30